Time;durP1;ratioP1;P1;durP2;ratioP2;P2;SDS_P1;SDS_P2;PMS_P1;PMS_P2;Temp;Humidity;BMP_temperature;BMP_pressure;BME280_temperature;BME280_humidity;BME280_pressure;Samples;Min_cycle;Max_cycle;Signal;HPM_P1;HPM_P2
2022/01/01 00:00:33;;;;;;;0.30;0.30;;;6.40;99.90;;;;;;5076233;28;20419;-68
2022/01/01 00:03:00;;;;;;;0.30;0.30;;;6.30;99.90;;;;;;5076320;28;20796;-68
2022/01/01 00:05:26;;;;;;;0.30;0.30;;;6.30;99.90;;;;;;5075983;28;20276;-68
2022/01/01 00:07:52;;;;;;;0.30;0.30;;;6.30;99.90;;;;;;5076222;28;20318;-68
2022/01/01 00:10:20;;;;;;;0.40;0.40;;;6.30;99.90;;;;;;5076062;28;20408;-68
2022/01/01 00:12:47;;;;;;;0.30;0.30;;;6.40;99.90;;;;;;5076111;28;20198;-68
2022/01/01 00:15:13;;;;;;;0.30;0.30;;;6.40;99.90;;;;;;5075769;28;20185;-68
2022/01/01 00:17:39;;;;;;;0.30;0.30;;;6.40;99.90;;;;;;5076039;28;20691;-68
2022/01/01 00:20:06;;;;;;;0.30;0.30;;;6.40;99.90;;;;;;5075664;28;20253;-68
2022/01/01 00:22:31;;;;;;;0.40;0.40;;;6.50;99.90;;;;;;5075792;28;20428;-68
2022/01/01 00:24:57;;;;;;;0.40;0.40;;;6.50;99.90;;;;;;5075811;28;20600;-69
2022/01/01 00:27:22;;;;;;;1.27;1.17;;;6.50;99.90;;;;;;5075631;28;20208;-68
2022/01/01 00:29:48;;;;;;;0.30;0.30;;;6.50;99.90;;;;;;5075609;28;20170;-68
2022/01/01 00:32:14;;;;;;;0.40;0.40;;;6.50;99.90;;;;;;5075483;28;20222;-68
2022/01/01 00:34:39;;;;;;;0.30;0.30;;;6.40;99.90;;;;;;5075456;28;20243;-68
2022/01/01 00:37:05;;;;;;;0.30;0.30;;;6.40;99.90;;;;;;5075567;28;20170;-68
2022/01/01 00:39:31;;;;;;;0.30;0.30;;;6.40;99.90;;;;;;5075388;28;20231;-68
2022/01/01 00:41:57;;;;;;;0.30;0.30;;;6.40;99.90;;;;;;5074310;28;20181;-68
2022/01/01 00:44:24;;;;;;;0.30;0.30;;;6.40;99.90;;;;;;5075362;28;20432;-68
2022/01/01 00:46:49;;;;;;;0.30;0.30;;;6.40;99.90;;;;;;5075524;28;20254;-68
2022/01/01 00:49:15;;;;;;;0.40;0.40;;;6.40;99.90;;;;;;5075211;28;20755;-68
2022/01/01 00:51:41;;;;;;;0.40;0.40;;;6.40;99.90;;;;;;5075581;28;20252;-68
2022/01/01 00:54:07;;;;;;;0.40;0.40;;;6.40;99.90;;;;;;5075195;28;20273;-68
2022/01/01 00:56:32;;;;;;;0.40;0.40;;;6.40;99.90;;;;;;5075118;28;20234;-68
2022/01/01 00:58:58;;;;;;;0.30;0.30;;;6.40;99.90;;;;;;5074776;28;20764;-68
2022/01/01 01:01:24;;;;;;;0.40;0.40;;;6.40;99.90;;;;;;5074990;28;20166;-68
2022/01/01 01:03:49;;;;;;;0.30;0.30;;;6.40;99.90;;;;;;5074079;28;20165;-68
2022/01/01 01:06:15;;;;;;;0.30;0.30;;;6.30;99.90;;;;;;5073666;28;20231;-68
2022/01/01 01:08:41;;;;;;;0.30;0.30;;;6.40;99.90;;;;;;5074720;28;20169;-68
2022/01/01 01:11:08;;;;;;;0.30;0.30;;;6.50;99.90;;;;;;5074938;28;20192;-68
2022/01/01 01:13:35;;;;;;;0.30;0.30;;;6.50;99.90;;;;;;5074786;28;20198;-68
2022/01/01 01:16:01;;;;;;;0.30;0.30;;;6.40;99.90;;;;;;5074590;28;20605;-68
2022/01/01 01:18:27;;;;;;;0.30;0.30;;;6.40;99.90;;;;;;5074483;28;20185;-68
2022/01/01 01:20:53;;;;;;;0.35;0.35;;;6.40;99.90;;;;;;5074641;28;20461;-68
2022/01/01 01:23:18;;;;;;;0.30;0.30;;;6.40;99.90;;;;;;5074490;28;20174;-68
2022/01/01 01:25:44;;;;;;;0.30;0.30;;;6.40;99.90;;;;;;5074432;28;20216;-68
2022/01/01 01:28:13;;;;;;;0.40;0.40;;;6.30;99.90;;;;;;5074426;28;20170;-68
2022/01/01 01:30:40;;;;;;;0.30;0.30;;;6.40;99.90;;;;;;5074627;28;20165;-68
2022/01/01 01:33:07;;;;;;;0.30;0.30;;;6.30;99.90;;;;;;5074296;28;20197;-68
2022/01/01 01:35:33;;;;;;;0.30;0.30;;;6.30;99.90;;;;;;5074282;28;20280;-68
2022/01/01 01:37:59;;;;;;;0.40;0.40;;;6.30;99.90;;;;;;5074199;28;20300;-68
2022/01/01 01:40:25;;;;;;;0.40;0.40;;;6.40;99.90;;;;;;5074451;28;20402;-68
2022/01/01 01:42:51;;;;;;;0.30;0.30;;;6.30;99.90;;;;;;5074320;28;20204;-68
2022/01/01 01:45:19;;;;;;;0.30;0.30;;;6.30;99.90;;;;;;5074164;28;20254;-68
2022/01/01 01:47:47;;;;;;;0.40;0.40;;;6.20;99.90;;;;;;5074441;28;20627;-68
2022/01/01 01:50:14;;;;;;;0.40;0.40;;;6.10;99.90;;;;;;5073953;28;20697;-68
2022/01/01 01:52:45;;;;;;;0.30;0.30;;;6.10;99.90;;;;;;5074070;28;20239;-68
2022/01/01 01:55:11;;;;;;;0.30;0.30;;;6.10;99.90;;;;;;5074147;28;20276;-68
2022/01/01 01:57:39;;;;;;;0.30;0.30;;;6.10;99.90;;;;;;5073879;28;20169;-68
2022/01/01 02:00:25;;;;;;;0.40;0.40;;;6.10;99.90;;;;;;5073615;28;20195;-68
2022/01/01 02:02:50;;;;;;;0.38;0.38;;;6.10;99.90;;;;;;5074241;28;20176;-68
2022/01/01 02:05:16;;;;;;;0.30;0.30;;;6.00;99.90;;;;;;5073695;28;20663;-68
2022/01/01 02:07:43;;;;;;;0.40;0.40;;;5.90;99.90;;;;;;5073717;28;20231;-68
2022/01/01 02:10:09;;;;;;;0.52;0.52;;;5.90;99.90;;;;;;5073602;28;20166;-68
2022/01/01 02:12:34;;;;;;;0.40;0.40;;;5.90;99.90;;;;;;5073650;28;20599;-68
2022/01/01 02:17:29;;;;;;;0.30;0.30;;;5.90;99.90;;;;;;5073911;28;20252;-68
2022/01/01 02:20:14;;;;;;;0.40;0.40;;;5.90;99.90;;;;;;5073607;28;20174;-68
2022/01/01 02:22:50;;;;;;;0.40;0.40;;;5.90;99.90;;;;;;5073794;28;20200;-68
2022/01/01 02:25:18;;;;;;;0.40;0.40;;;6.00;99.90;;;;;;5073531;28;20562;-68
2022/01/01 02:27:44;;;;;;;0.40;0.40;;;5.90;99.90;;;;;;5073639;28;20170;-68
2022/01/01 02:30:13;;;;;;;0.30;0.30;;;6.00;99.90;;;;;;5073425;28;20169;-68
2022/01/01 02:32:39;;;;;;;0.32;0.32;;;6.00;99.90;;;;;;5073557;28;20615;-68
2022/01/01 02:35:08;;;;;;;0.30;0.30;;;6.10;99.90;;;;;;5073569;28;20193;-68
2022/01/01 02:37:38;;;;;;;0.30;0.30;;;6.00;99.90;;;;;;5073466;28;20248;-68
2022/01/01 02:40:05;;;;;;;0.32;0.32;;;5.90;99.90;;;;;;5073594;28;20523;-68
2022/01/01 02:42:30;;;;;;;0.30;0.30;;;5.90;99.90;;;;;;5073411;28;20177;-68
2022/01/01 02:44:58;;;;;;;0.30;0.30;;;5.90;99.90;;;;;;5073291;28;20183;-68
2022/01/01 02:47:24;;;;;;;0.45;0.45;;;6.00;99.90;;;;;;5073267;28;20168;-68
2022/01/01 02:49:50;;;;;;;0.30;0.30;;;6.00;99.90;;;;;;5073122;28;20249;-68
2022/01/01 02:52:15;;;;;;;0.30;0.30;;;6.00;99.90;;;;;;5073290;28;20248;-67
2022/01/01 02:54:41;;;;;;;0.40;0.40;;;5.90;99.90;;;;;;5073127;28;20205;-68
2022/01/01 02:57:06;;;;;;;0.40;0.40;;;5.90;99.90;;;;;;5073151;28;20165;-68
2022/01/01 02:59:32;;;;;;;0.30;0.30;;;5.70;99.90;;;;;;5072845;28;20178;-68
2022/01/01 03:01:58;;;;;;;0.30;0.30;;;5.70;99.90;;;;;;5073293;28;20631;-68
2022/01/01 03:04:23;;;;;;;0.30;0.30;;;5.60;99.90;;;;;;5073251;28;20319;-68
2022/01/01 03:06:54;;;;;;;0.30;0.30;;;5.60;99.90;;;;;;5073155;28;20165;-68
2022/01/01 03:09:23;;;;;;;0.30;0.30;;;5.60;99.90;;;;;;5073140;28;20173;-68
2022/01/01 03:11:48;;;;;;;0.30;0.30;;;5.60;99.90;;;;;;5073164;28;20170;-68
2022/01/01 03:14:17;;;;;;;0.30;0.30;;;5.60;99.90;;;;;;5073037;28;20224;-68
2022/01/01 03:16:44;;;;;;;0.30;0.30;;;5.60;99.90;;;;;;5072941;28;20213;-68
2022/01/01 03:19:10;;;;;;;0.30;0.30;;;5.60;99.90;;;;;;5072842;28;20171;-68
2022/01/01 03:21:36;;;;;;;0.30;0.30;;;5.70;99.90;;;;;;5073038;28;20593;-68
2022/01/01 03:24:02;;;;;;;0.30;0.30;;;5.70;99.90;;;;;;5073045;28;20272;-68
2022/01/01 03:26:27;;;;;;;0.30;0.30;;;5.70;99.90;;;;;;5073832;28;20518;-68
2022/01/01 03:28:53;;;;;;;0.40;0.40;;;5.70;99.90;;;;;;5076590;28;20180;-68
2022/01/01 03:31:19;;;;;;;0.30;0.30;;;5.70;99.90;;;;;;5076684;28;20169;-68
2022/01/01 03:33:44;;;;;;;0.40;0.40;;;5.60;99.90;;;;;;5076529;28;20798;-68
2022/01/01 03:36:10;;;;;;;0.30;0.30;;;5.60;99.90;;;;;;5075301;28;20199;-68
2022/01/01 03:38:35;;;;;;;0.40;0.40;;;5.60;99.90;;;;;;5076401;28;20165;-68
2022/01/01 03:41:01;;;;;;;0.30;0.30;;;5.70;99.90;;;;;;5076668;28;20711;-68
2022/01/01 03:43:27;;;;;;;0.30;0.30;;;5.60;99.90;;;;;;5076588;28;20200;-68
2022/01/01 03:45:52;;;;;;;0.30;0.30;;;5.60;99.90;;;;;;5076305;28;20262;-68
2022/01/01 03:48:18;;;;;;;0.30;0.30;;;5.60;99.90;;;;;;5076345;28;20646;-68
2022/01/01 03:50:43;;;;;;;0.30;0.30;;;5.60;99.90;;;;;;5076505;28;20173;-68
2022/01/01 03:53:10;;;;;;;0.40;0.40;;;5.60;99.90;;;;;;5076525;28;20189;-68
2022/01/01 03:55:36;;;;;;;0.40;0.40;;;5.60;99.90;;;;;;5076782;28;20192;-68
2022/01/01 03:58:02;;;;;;;0.30;0.30;;;5.50;99.90;;;;;;5076198;28;20170;-68
2022/01/01 04:00:27;;;;;;;0.30;0.30;;;5.40;99.90;;;;;;5076229;28;20321;-68
2022/01/01 04:02:53;;;;;;;0.30;0.30;;;5.40;99.90;;;;;;5076130;28;20166;-68
2022/01/01 04:05:19;;;;;;;0.30;0.30;;;5.30;99.90;;;;;;5075981;28;20616;-68
2022/01/01 04:07:44;;;;;;;0.30;0.30;;;5.40;99.90;;;;;;5076233;28;20700;-69
2022/01/01 04:10:10;;;;;;;0.37;0.37;;;5.30;99.90;;;;;;5075958;28;20168;-68
2022/01/01 04:12:36;;;;;;;0.30;0.30;;;5.40;99.90;;;;;;5076066;28;20223;-68
2022/01/01 04:15:03;;;;;;;0.30;0.30;;;5.40;99.90;;;;;;5076016;28;20428;-68
2022/01/01 04:17:29;;;;;;;0.50;0.50;;;5.40;99.90;;;;;;5075849;28;20395;-68
2022/01/01 04:19:54;;;;;;;0.30;0.30;;;5.40;99.90;;;;;;5075692;28;20176;-68
2022/01/01 04:22:20;;;;;;;0.40;0.40;;;5.40;99.90;;;;;;5076079;28;20165;-67
2022/01/01 04:24:46;;;;;;;0.30;0.30;;;5.40;99.90;;;;;;5075665;28;20254;-68
2022/01/01 04:27:11;;;;;;;0.30;0.30;;;5.40;99.90;;;;;;5075637;28;20177;-68
2022/01/01 04:29:38;;;;;;;0.40;0.40;;;5.30;99.90;;;;;;5075409;28;20174;-68
2022/01/01 04:32:05;;;;;;;0.30;0.30;;;5.30;99.90;;;;;;5075612;28;20678;-68
2022/01/01 04:34:30;;;;;;;0.32;0.32;;;5.20;99.90;;;;;;5075353;28;20301;-68
2022/01/01 04:37:06;;;;;;;0.33;0.33;;;5.20;99.90;;;;;;5075587;28;20170;-68
2022/01/01 04:39:32;;;;;;;0.30;0.30;;;5.20;99.90;;;;;;5074330;28;20176;-68
2022/01/01 04:41:57;;;;;;;0.33;0.33;;;5.30;99.90;;;;;;5075239;28;20177;-68
2022/01/01 04:44:23;;;;;;;0.30;0.30;;;5.30;99.90;;;;;;5075672;28;20688;-68
2022/01/01 04:46:49;;;;;;;0.30;0.30;;;5.30;99.90;;;;;;5075352;28;20180;-68
2022/01/01 04:49:14;;;;;;;0.30;0.30;;;5.30;99.90;;;;;;5075172;28;20453;-68
2022/01/01 04:51:40;;;;;;;0.30;0.30;;;5.30;99.90;;;;;;5075317;28;20165;-68
2022/01/01 04:54:15;;;;;;;0.40;0.40;;;5.40;99.90;;;;;;5075133;28;20189;-68
2022/01/01 04:56:46;;;;;;;0.35;0.35;;;5.40;99.90;;;;;;5075067;28;20157;-68
2022/01/01 04:59:12;;;;;;;0.40;0.40;;;5.40;99.90;;;;;;5074779;28;20181;-68
2022/01/01 05:01:42;;;;;;;0.32;0.32;;;5.40;99.90;;;;;;5075067;28;20166;-68
2022/01/01 05:04:08;;;;;;;0.32;0.32;;;5.20;99.90;;;;;;5075062;28;20207;-68
2022/01/01 05:06:34;;;;;;;0.30;0.30;;;5.20;99.90;;;;;;5074872;28;20176;-68
2022/01/01 05:09:01;;;;;;;0.40;0.40;;;5.30;99.90;;;;;;5074680;28;20640;-68
2022/01/01 05:11:27;;;;;;;0.38;0.38;;;5.30;99.90;;;;;;5075000;28;20396;-68
2022/01/01 05:13:52;;;;;;;0.40;0.40;;;5.20;99.90;;;;;;5074622;28;20207;-68
2022/01/01 05:16:19;;;;;;;0.30;0.30;;;5.30;99.90;;;;;;5074664;28;20259;-68
2022/01/01 05:18:46;;;;;;;0.30;0.30;;;5.30;99.90;;;;;;5074583;28;20189;-68
2022/01/01 05:21:12;;;;;;;0.30;0.30;;;5.20;99.90;;;;;;5074790;28;20169;-68
2022/01/01 05:23:37;;;;;;;0.30;0.30;;;5.10;99.90;;;;;;5074707;28;20245;-68
2022/01/01 05:26:03;;;;;;;1.03;0.90;;;5.10;99.90;;;;;;5074648;28;20458;-68
2022/01/01 05:28:29;;;;;;;0.30;0.30;;;5.20;99.90;;;;;;5074455;28;20181;-68
2022/01/01 05:30:55;;;;;;;0.30;0.30;;;5.20;99.90;;;;;;5074510;28;20402;-68
2022/01/01 05:33:21;;;;;;;1.57;1.57;;;5.20;99.90;;;;;;5074520;28;20250;-68
2022/01/01 05:35:47;;;;;;;0.30;0.30;;;5.20;99.90;;;;;;5074284;28;20439;-68
2022/01/01 05:38:12;;;;;;;0.30;0.30;;;5.20;99.90;;;;;;5074258;28;20598;-68
2022/01/01 05:40:38;;;;;;;0.30;0.30;;;5.20;99.90;;;;;;5074223;28;20240;-68
2022/01/01 05:43:03;;;;;;;0.30;0.30;;;5.20;99.90;;;;;;5074493;28;20180;-68
2022/01/01 05:45:29;;;;;;;0.30;0.30;;;5.20;99.90;;;;;;5074077;28;20196;-68
2022/01/01 05:47:55;;;;;;;0.30;0.30;;;5.30;99.90;;;;;;5074213;28;20662;-68
2022/01/01 05:50:20;;;;;;;0.30;0.30;;;5.30;99.90;;;;;;5073942;28;20532;-68
2022/01/01 05:52:47;;;;;;;0.40;0.40;;;5.30;99.90;;;;;;5074116;28;20200;-68
2022/01/01 05:55:12;;;;;;;0.30;0.30;;;5.20;99.90;;;;;;5074090;28;20211;-67
2022/01/01 05:57:38;;;;;;;0.30;0.30;;;5.20;99.90;;;;;;5074129;28;20174;-68
2022/01/01 06:00:07;;;;;;;0.30;0.30;;;5.10;99.90;;;;;;5073680;28;20193;-68
2022/01/01 06:02:42;;;;;;;0.35;0.35;;;5.00;99.90;;;;;;5074028;28;20303;-68
2022/01/01 06:05:09;;;;;;;0.30;0.30;;;5.10;99.90;;;;;;5073782;28;20207;-68
2022/01/01 06:07:35;;;;;;;0.40;0.40;;;5.10;99.90;;;;;;5073754;28;20173;-68
2022/01/01 06:10:01;;;;;;;0.40;0.40;;;5.20;99.90;;;;;;5073817;28;20557;-68
2022/01/01 06:12:27;;;;;;;0.30;0.30;;;5.20;99.90;;;;;;5073679;28;20818;-68
2022/01/01 06:14:52;;;;;;;0.30;0.30;;;5.20;99.90;;;;;;5073621;28;20189;-68
2022/01/01 06:17:18;;;;;;;0.40;0.40;;;5.20;99.90;;;;;;5073664;28;20855;-69
2022/01/01 06:19:44;;;;;;;0.30;0.30;;;5.20;99.90;;;;;;5073349;28;20248;-67
2022/01/01 06:22:10;;;;;;;0.30;0.30;;;5.30;99.90;;;;;;5073819;28;20165;-68
2022/01/01 06:24:36;;;;;;;0.32;0.32;;;5.30;99.90;;;;;;5073612;28;20200;-68
2022/01/01 06:27:02;;;;;;;0.37;0.37;;;5.40;99.90;;;;;;5073717;28;20181;-68
2022/01/01 06:29:28;;;;;;;0.30;0.30;;;5.40;99.90;;;;;;5073645;28;20585;-68
2022/01/01 06:31:53;;;;;;;0.30;0.30;;;5.40;99.90;;;;;;5073624;28;20180;-68
2022/01/01 06:34:19;;;;;;;0.30;0.30;;;5.40;99.90;;;;;;5073436;28;20232;-68
2022/01/01 06:36:44;;;;;;;0.30;0.30;;;5.40;99.90;;;;;;5073407;28;20173;-68
2022/01/01 06:39:10;;;;;;;0.30;0.30;;;5.40;99.90;;;;;;5073248;28;20184;-69
2022/01/01 06:41:36;;;;;;;0.40;0.40;;;5.40;99.90;;;;;;5073443;28;20244;-68
2022/01/01 06:44:02;;;;;;;0.30;0.30;;;5.40;99.90;;;;;;5073369;28;20219;-68
2022/01/01 06:46:28;;;;;;;0.30;0.30;;;5.40;99.90;;;;;;5073437;28;20416;-68
2022/01/01 06:48:53;;;;;;;0.40;0.40;;;5.50;99.90;;;;;;5073212;28;20184;-68
2022/01/01 06:51:19;;;;;;;0.30;0.30;;;5.50;99.90;;;;;;5073242;28;20256;-68
2022/01/01 06:53:45;;;;;;;0.40;0.40;;;5.50;99.90;;;;;;5073152;28;20268;-68
2022/01/01 06:56:11;;;;;;;0.40;0.40;;;5.50;99.90;;;;;;5073228;28;20170;-68
2022/01/01 06:58:38;;;;;;;0.40;0.40;;;5.40;99.90;;;;;;5073243;28;20181;-68
2022/01/01 07:01:04;;;;;;;0.30;0.30;;;5.30;99.90;;;;;;5073675;28;20530;-68
2022/01/01 07:03:30;;;;;;;0.30;0.30;;;5.10;99.90;;;;;;5076096;28;20189;-68
2022/01/01 07:05:56;;;;;;;0.30;0.30;;;5.20;99.90;;;;;;5077158;28;20201;-69
2022/01/01 07:08:21;;;;;;;0.40;0.40;;;5.20;99.90;;;;;;5077231;28;20172;-68
2022/01/01 07:10:47;;;;;;;0.30;0.30;;;5.30;99.90;;;;;;5077183;28;20174;-68
2022/01/01 07:13:14;;;;;;;0.30;0.30;;;5.30;99.90;;;;;;5076992;28;20194;-68
2022/01/01 07:15:40;;;;;;;0.35;0.35;;;5.30;99.90;;;;;;5076899;28;20193;-68
2022/01/01 07:18:06;;;;;;;0.40;0.40;;;5.40;99.90;;;;;;5077027;28;20224;-67
2022/01/01 07:20:32;;;;;;;0.40;0.40;;;5.40;99.90;;;;;;5077215;28;20166;-68
2022/01/01 07:22:57;;;;;;;0.40;0.40;;;5.40;99.90;;;;;;5076892;28;20199;-68
2022/01/01 07:25:23;;;;;;;0.30;0.30;;;5.40;99.90;;;;;;5076823;28;20457;-68
2022/01/01 07:27:49;;;;;;;0.37;0.37;;;5.30;99.90;;;;;;5076933;28;20259;-68
2022/01/01 07:30:14;;;;;;;0.30;0.30;;;5.30;99.90;;;;;;5076782;28;20177;-68
2022/01/01 07:32:42;;;;;;;0.30;0.30;;;5.40;99.90;;;;;;5076749;28;20530;-68
2022/01/01 07:35:09;;;;;;;0.30;0.30;;;5.40;99.90;;;;;;5075333;28;20428;-68
2022/01/01 07:37:36;;;;;;;0.40;0.40;;;5.40;99.90;;;;;;5075389;28;20170;-68
2022/01/01 07:40:04;;;;;;;0.40;0.40;;;5.40;99.90;;;;;;5076504;28;20166;-68
2022/01/01 07:42:30;;;;;;;0.35;0.35;;;5.40;99.90;;;;;;5076600;28;20251;-68
2022/01/01 07:44:55;;;;;;;0.40;0.40;;;5.40;99.90;;;;;;5076486;28;20189;-68
2022/01/01 07:47:21;;;;;;;0.30;0.30;;;5.50;99.90;;;;;;5076914;28;20170;-68
2022/01/01 07:49:47;;;;;;;0.30;0.30;;;5.50;99.90;;;;;;5076315;28;20169;-68
2022/01/01 07:52:12;;;;;;;0.30;0.30;;;5.60;99.90;;;;;;5076548;28;20166;-68
2022/01/01 07:54:38;;;;;;;0.30;0.30;;;5.60;99.90;;;;;;5076243;28;20232;-68
2022/01/01 07:57:03;;;;;;;0.30;0.30;;;5.70;99.90;;;;;;5076370;28;20609;-68
2022/01/01 07:59:29;;;;;;;0.40;0.40;;;5.80;99.90;;;;;;5075883;28;20195;-68
2022/01/01 08:01:55;;;;;;;0.30;0.30;;;5.80;99.90;;;;;;5076322;28;20206;-67
2022/01/01 08:04:20;;;;;;;0.40;0.40;;;5.80;99.90;;;;;;5076084;28;20193;-68
2022/01/01 08:06:46;;;;;;;0.30;0.30;;;5.80;99.90;;;;;;5076306;28;20181;-68
2022/01/01 08:09:13;;;;;;;0.30;0.30;;;5.80;99.90;;;;;;5075890;28;20186;-68
2022/01/01 08:11:39;;;;;;;0.40;0.40;;;5.90;99.90;;;;;;5076208;28;20274;-68
2022/01/01 08:14:05;;;;;;;0.40;0.40;;;5.90;99.90;;;;;;5075506;28;20237;-68
2022/01/01 08:16:30;;;;;;;0.30;0.30;;;6.00;99.90;;;;;;5075884;28;20194;-68
2022/01/01 08:18:56;;;;;;;0.40;0.40;;;6.10;99.90;;;;;;5075895;28;20170;-68
2022/01/01 08:21:22;;;;;;;0.30;0.30;;;6.50;99.90;;;;;;5076272;28;20165;-68
2022/01/01 08:23:47;;;;;;;0.30;0.30;;;7.20;99.90;;;;;;5075944;28;20582;-68
2022/01/01 08:26:13;;;;;;;0.40;0.40;;;8.10;99.90;;;;;;5076163;28;20176;-68
2022/01/01 08:28:39;;;;;;;0.30;0.30;;;8.70;99.90;;;;;;5075620;28;20203;-68
2022/01/01 08:31:06;;;;;;;0.30;0.30;;;9.40;99.90;;;;;;5075762;28;20171;-68
2022/01/01 08:33:31;;;;;;;0.30;0.30;;;10.00;99.90;;;;;;5075526;28;20529;-68
2022/01/01 08:35:57;;;;;;;0.30;0.30;;;10.60;99.90;;;;;;5075469;28;20246;-68
2022/01/01 08:38:23;;;;;;;0.30;0.30;;;11.00;99.90;;;;;;5075394;28;20177;-69
2022/01/01 08:40:48;;;;;;;2.20;0.83;;;11.10;99.30;;;;;;5075677;28;20166;-68
2022/01/01 08:43:14;;;;;;;0.30;0.30;;;11.20;99.90;;;;;;5075618;28;20178;-69
2022/01/01 08:45:40;;;;;;;0.30;0.30;;;11.50;99.70;;;;;;5075291;28;20189;-69
2022/01/01 08:48:07;;;;;;;0.30;0.30;;;11.70;97.50;;;;;;5075156;28;20173;-69
2022/01/01 08:50:33;;;;;;;0.30;0.30;;;12.10;99.10;;;;;;5075586;28;20415;-69
2022/01/01 08:52:58;;;;;;;0.30;0.30;;;12.90;99.10;;;;;;5075242;28;20194;-68
2022/01/01 08:55:25;;;;;;;0.40;0.40;;;13.40;97.00;;;;;;5075209;28;20189;-69
2022/01/01 08:57:51;;;;;;;0.30;0.30;;;13.80;94.30;;;;;;5075213;28;20623;-68
2022/01/01 09:00:17;;;;;;;0.30;0.30;;;14.40;92.10;;;;;;5074767;28;20515;-69
2022/01/01 09:02:43;;;;;;;0.30;0.30;;;14.90;90.40;;;;;;5075021;28;20244;-69
2022/01/01 09:05:10;;;;;;;0.30;0.30;;;15.40;86.70;;;;;;5075008;28;20420;-69
2022/01/01 09:07:36;;;;;;;0.30;0.30;;;16.10;84.70;;;;;;5074778;28;20431;-69
2022/01/01 09:10:03;;;;;;;0.30;0.30;;;16.60;82.50;;;;;;5074765;28;20431;-69
2022/01/01 09:12:30;;;;;;;0.30;0.30;;;17.10;79.50;;;;;;5075018;28;20197;-69
2022/01/01 09:14:56;;;;;;;0.30;0.30;;;17.70;77.90;;;;;;5075367;28;20432;-69
2022/01/01 09:17:22;;;;;;;0.30;0.30;;;18.20;75.50;;;;;;5074722;28;20453;-69
2022/01/01 09:19:49;;;;;;;0.30;0.30;;;18.70;73.70;;;;;;5074557;28;20402;-69
2022/01/01 09:22:14;;;;;;;0.30;0.30;;;19.10;71.80;;;;;;5074729;28;20912;-69
2022/01/01 09:24:40;;;;;;;0.30;0.30;;;19.30;69.70;;;;;;5074100;28;20462;-69
2022/01/01 09:27:06;;;;;;;0.30;0.30;;;19.40;68.30;;;;;;5074546;28;20268;-69
2022/01/01 09:29:32;;;;;;;0.70;0.70;;;19.50;67.90;;;;;;5074347;28;20185;-69
2022/01/01 09:31:58;;;;;;;0.40;0.40;;;19.40;67.00;;;;;;5074683;28;20759;-69
2022/01/01 09:34:23;;;;;;;0.30;0.30;;;19.40;67.20;;;;;;5074559;28;20463;-69
2022/01/01 09:36:50;;;;;;;0.30;0.30;;;19.40;67.90;;;;;;5074342;28;20224;-69
2022/01/01 09:39:17;;;;;;;0.40;0.40;;;19.90;67.60;;;;;;5074173;28;20162;-68
2022/01/01 09:41:43;;;;;;;0.30;0.30;;;20.60;65.50;;;;;;5074458;28;20418;-70
2022/01/01 09:44:17;;;;;;;0.30;0.30;;;21.20;63.10;;;;;;5074328;28;20460;-69
2022/01/01 09:46:45;;;;;;;0.40;0.40;;;21.60;62.30;;;;;;5072929;28;20503;-69
2022/01/01 09:49:15;;;;;;;0.30;0.30;;;22.20;60.60;;;;;;5073884;28;20419;-69
2022/01/01 09:51:41;;;;;;;0.30;0.30;;;22.50;59.40;;;;;;5074171;28;20399;-69
2022/01/01 09:54:08;;;;;;;0.30;0.30;;;22.90;58.20;;;;;;5074035;28;20545;-70
2022/01/01 09:56:34;;;;;;;0.40;0.40;;;23.00;56.80;;;;;;5073944;28;20450;-69
2022/01/01 09:59:00;;;;;;;0.30;0.30;;;22.90;57.10;;;;;;5073655;28;20423;-69
2022/01/01 10:01:26;;;;;;;0.30;0.30;;;23.10;55.90;;;;;;5073961;28;20450;-69
2022/01/01 10:03:52;;;;;;;0.30;0.30;;;23.20;55.70;;;;;;5073873;28;20408;-69
2022/01/01 10:06:20;;;;;;;0.30;0.30;;;23.40;55.60;;;;;;5073842;28;20184;-69
2022/01/01 10:08:56;;;;;;;0.30;0.30;;;23.00;56.20;;;;;;5073710;28;20896;-69
2022/01/01 10:11:23;;;;;;;0.30;0.30;;;22.60;56.80;;;;;;5074018;28;20402;-69
2022/01/01 10:13:49;;;;;;;0.30;0.30;;;22.50;57.20;;;;;;5073802;28;20459;-69
2022/01/01 10:16:16;;;;;;;0.30;0.30;;;22.70;56.70;;;;;;5073828;28;20411;-70
2022/01/01 10:18:45;;;;;;;0.40;0.40;;;22.80;56.80;;;;;;5073531;28;20480;-69
2022/01/01 10:21:14;;;;;;;0.30;0.30;;;22.80;56.60;;;;;;5073890;28;20411;-69
2022/01/01 10:23:42;;;;;;;0.30;0.30;;;22.70;56.20;;;;;;5073769;28;20767;-67
2022/01/01 10:29:24;;;;;;;0.30;0.30;;;22.80;56.60;;;;;;5073758;28;20426;-67
2022/01/01 10:32:07;;;;;;;0.30;0.30;;;23.00;55.40;;;;;;5073584;28;20516;-67
2022/01/01 10:34:34;;;;;;;0.30;0.30;;;23.20;55.00;;;;;;5073514;28;20437;-67
2022/01/01 10:37:01;;;;;;;0.30;0.30;;;23.00;55.40;;;;;;5073657;28;20404;-67
2022/01/01 10:39:28;;;;;;;0.30;0.30;;;22.60;56.10;;;;;;5073460;28;20414;-67
2022/01/01 10:42:03;;;;;;;0.30;0.30;;;22.00;57.60;;;;;;5073525;28;20434;-67
2022/01/01 10:44:34;;;;;;;0.30;0.30;;;21.60;58.40;;;;;;5073559;28;20449;-67
2022/01/01 10:47:05;;;;;;;0.30;0.30;;;21.30;58.90;;;;;;5073605;28;20770;-67
2022/01/01 10:52:13;;;;;;;0.30;0.30;;;21.10;59.70;;;;;;5073429;28;20464;-67
2022/01/01 10:54:46;;;;;;;0.30;0.30;;;20.90;59.90;;;;;;5073195;28;20964;-67
2022/01/01 10:57:12;;;;;;;0.30;0.30;;;20.60;60.90;;;;;;5071984;28;20419;-67
2022/01/01 10:59:38;;;;;;;0.30;0.30;;;20.50;62.40;;;;;;5073132;28;20504;-67
2022/01/01 11:02:07;;;;;;;0.30;0.30;;;20.20;62.50;;;;;;5073162;28;20636;-66
2022/01/01 11:04:36;;;;;;;0.30;0.30;;;20.10;64.00;;;;;;5073168;28;20461;-67
2022/01/01 11:07:03;;;;;;;1.07;1.03;;;19.50;65.10;;;;;;5073268;28;20535;-67
2022/01/01 11:09:31;;;;;;;0.40;0.40;;;19.00;65.60;;;;;;5072925;28;20784;-67
2022/01/01 11:12:02;;;;;;;0.30;0.30;;;18.50;67.70;;;;;;5073084;28;20407;-66
2022/01/01 11:14:31;;;;;;;0.30;0.30;;;18.20;70.70;;;;;;5073035;28;20524;-67
2022/01/01 11:17:00;;;;;;;0.30;0.30;;;17.80;71.40;;;;;;5073138;28;20415;-66
2022/01/01 11:19:26;;;;;;;0.30;0.30;;;17.30;74.60;;;;;;5072857;28;20460;-69
2022/01/01 11:21:53;;;;;;;0.30;0.30;;;16.90;75.60;;;;;;5073092;28;20460;-69
2022/01/01 11:24:21;;;;;;;0.30;0.30;;;16.50;76.80;;;;;;5072924;28;20932;-68
2022/01/01 11:26:49;;;;;;;0.40;0.40;;;16.20;77.80;;;;;;5073176;28;20815;-69
2022/01/01 11:29:15;;;;;;;0.30;0.30;;;16.10;79.70;;;;;;5072818;28;20451;-68
2022/01/01 11:31:44;;;;;;;0.30;0.30;;;15.90;81.80;;;;;;5073369;28;20404;-69
2022/01/01 11:34:12;;;;;;;0.40;0.40;;;15.90;80.20;;;;;;5072878;28;20459;-68
2022/01/01 11:36:38;;;;;;;0.30;0.30;;;15.70;83.20;;;;;;5072751;28;20889;-68
2022/01/01 11:39:13;;;;;;;0.30;0.30;;;15.60;84.50;;;;;;5072687;28;20407;-69
2022/01/01 11:41:41;;;;;;;0.70;0.70;;;15.50;84.60;;;;;;5073073;28;20737;-68
2022/01/01 11:44:54;;;;;;;0.30;0.30;;;15.40;85.40;;;;;;5072829;28;20450;-69
2022/01/01 11:47:23;;;;;;;0.30;0.30;;;15.20;86.30;;;;;;5071422;28;20431;-69
2022/01/01 11:49:51;;;;;;;0.30;0.30;;;15.10;86.70;;;;;;5074370;28;20415;-68
2022/01/01 11:52:40;;;;;;;0.30;0.30;;;15.00;87.80;;;;;;5075709;28;20415;-68
2022/01/01 11:55:14;;;;;;;0.30;0.30;;;14.90;88.40;;;;;;5076267;28;20446;-68
2022/01/01 11:57:59;;;;;;;0.60;0.60;;;14.70;89.10;;;;;;5076309;28;20495;-69
2022/01/01 12:00:24;;;;;;;0.90;0.90;;;14.60;89.70;;;;;;5076248;28;20858;-69
2022/01/01 12:03:09;;;;;;;0.30;0.30;;;14.50;90.30;;;;;;5076153;28;20415;-68
2022/01/01 12:05:36;;;;;;;0.40;0.40;;;14.40;90.70;;;;;;5076225;28;20485;-69
2022/01/01 12:08:02;;;;;;;0.30;0.30;;;14.30;90.90;;;;;;5075907;28;20406;-69
2022/01/01 12:10:30;;;;;;;0.30;0.30;;;14.20;91.20;;;;;;5076094;28;20252;-69
2022/01/01 12:13:09;;;;;;;0.30;0.30;;;14.20;91.40;;;;;;5076002;28;20172;-69
2022/01/01 12:15:50;;;;;;;0.30;0.30;;;14.20;91.60;;;;;;5074585;28;20431;-68
2022/01/01 12:18:19;;;;;;;0.40;0.40;;;14.10;91.80;;;;;;5075809;28;20404;-68
2022/01/01 12:20:51;;;;;;;0.30;0.30;;;14.00;92.10;;;;;;5075873;28;20433;-69
2022/01/01 12:23:26;;;;;;;0.40;0.40;;;14.00;92.50;;;;;;5075857;28;20481;-69
2022/01/01 12:25:54;;;;;;;0.30;0.30;;;13.90;92.70;;;;;;5075825;28;20442;-69
2022/01/01 12:28:36;;;;;;;0.40;0.40;;;13.90;92.90;;;;;;5075696;28;20407;-68
2022/01/01 12:31:29;;;;;;;0.30;0.30;;;13.90;93.10;;;;;;5075931;28;20504;-69
2022/01/01 12:33:59;;;;;;;0.30;0.30;;;13.80;93.10;;;;;;5075374;28;20466;-68
2022/01/01 12:36:32;;;;;;;0.30;0.30;;;13.80;92.90;;;;;;5075644;28;20373;-69
2022/01/01 12:39:03;;;;;;;0.30;0.30;;;13.80;93.20;;;;;;5075298;28;20439;-68
2022/01/01 12:41:40;;;;;;;0.40;0.40;;;13.70;93.70;;;;;;5075740;28;20399;-69
2022/01/01 12:44:21;;;;;;;0.40;0.40;;;13.70;94.00;;;;;;5075577;28;20419;-69
2022/01/01 12:47:10;;;;;;;0.30;0.30;;;13.70;94.10;;;;;;5075458;28;20462;-69
2022/01/01 12:49:39;;;;;;;0.50;0.50;;;13.70;94.10;;;;;;5075110;28;20967;-68
2022/01/01 12:52:09;;;;;;;0.30;0.30;;;13.70;94.10;;;;;;5075248;28;20818;-69
2022/01/01 12:54:42;;;;;;;0.30;0.30;;;13.70;94.10;;;;;;5075316;28;20825;-68
2022/01/01 12:57:08;;;;;;;0.30;0.30;;;13.70;94.20;;;;;;5075380;28;20383;-69
2022/01/01 12:59:33;;;;;;;1.03;1.03;;;13.70;94.20;;;;;;5073810;28;20526;-69
2022/01/01 13:02:02;;;;;;;0.30;0.30;;;13.70;94.20;;;;;;5075235;28;20667;-69